Strona główna
METAR-TAF:

METAR-TAF

Lotnisko :

Port lotniczy Tân Sơn Nhất w Ho Chi Minh

Ho Chi Minh, Wietnam

Szerokość geograficzna: 10-49N, Długość geograficzna: 106-40E, wysokość: 19 m

Aktualna obserwacja pogody

Raport powstał 27 minut temu, godzina 06:30 UTC
Wiatr 4 kt z kierunków zmiennych
Temperatura 34°C
Wilgotność 34%
Ciśnienie 1009 hPa
Widzialność 10 km lub więcej
Mało chmury na wysokości 2000 ft

METAR: VVTS 280630Z VRB04KT 9999 FEW020 34/16 Q1009 NOSIG

czas: 13:57 (06:57 UTC)

Prognoza

Raport powstał 1 godzina i 57 minut temu, godzina 05:00 UTC
Prognoza ważna od 28 godzina 06 UTC do 29 godzina 12 UTC
Wiatr 3 kt z kierunków zmiennych
Widzialność 10 km lub więcej
Rozproszone chmury na wysokości 2000 ft
Stopniowe zmiany
od 28 godzina 12 UTC do 28 godzina 13 UTC
Wiatr 10 kt od południowo-południowy wschód

TAF: VVTS 280500Z 2806/2912 VRB03KT 9999 SCT020 BECMG 2812/2813 16010KT

Obserwacja i prognoza pogody dla ponad 4000 lotnisk (raport METAR i TAF).

Dostępne stacje oznaczono żółtymi i czerwonymi punktami na mapie.

Najedź kursorem aby zobaczyć nazwę stacji.

Kliknij aby zobaczyć obserwacje i prognozy pogody.

Aby zmienić mapę: kliknij na zielony przycisk z czarnym krzyżykiem, aby powiększyć; na zielony przycisk z myślnikiem, aby pomniejszyć; na zielone strzałki, aby przejść do map sąsiednich.


METAR-TAF: